Time;durP1;ratioP1;P1;durP2;ratioP2;P2;SDS_P1;SDS_P2;PMS_P1;PMS_P2;Temp;Humidity;BMP_temperature;BMP_pressure;BME280_temperature;BME280_humidity;BME280_pressure;Samples;Min_cycle;Max_cycle;Signal;HPM_P1;HPM_P2
2023/05/05 00:01:08;;;;;;;3.28;1.80;;;;;;;10.53;73.45;100381.56;6264772;28;20057;-74
2023/05/05 00:04:09;;;;;;;4.82;1.77;;;;;;;10.45;74.04;100379.38;6266934;28;20164;-71
2023/05/05 00:07:10;;;;;;;2.75;1.80;;;;;;;10.40;74.02;100384.03;6273286;28;20390;-71
2023/05/05 00:10:11;;;;;;;2.72;1.77;;;;;;;10.44;73.99;100381.16;6258645;28;20424;-72
2023/05/05 00:13:13;;;;;;;2.40;1.50;;;;;;;10.52;74.47;100379.88;6273326;28;20049;-72
2023/05/05 00:16:13;;;;;;;5.13;1.90;;;;;;;10.52;75.05;100379.88;6260537;28;20080;-71
2023/05/05 00:19:14;;;;;;;8.45;2.10;;;;;;;10.53;74.64;100377.19;6248083;28;20494;-74
2023/05/05 00:22:15;;;;;;;3.25;1.90;;;;;;;10.41;74.51;100380.47;6248147;28;20057;-74
2023/05/05 00:25:16;;;;;;;3.85;1.90;;;;;;;10.36;75.16;100375.53;6250378;28;20107;-74
2023/05/05 00:28:17;;;;;;;8.05;1.92;;;;;;;10.24;74.64;100368.34;6274163;28;20239;-74
2023/05/05 00:31:17;;;;;;;2.60;1.70;;;;;;;10.26;75.40;100369.09;6272720;28;20531;-74
2023/05/05 00:34:19;;;;;;;3.03;1.90;;;;;;;10.09;75.52;100373.44;6270828;28;20077;-74
2023/05/05 00:37:20;;;;;;;2.90;1.67;;;;;;;10.02;76.15;100366.88;6248929;28;20049;-74
2023/05/05 00:40:21;;;;;;;2.25;1.60;;;;;;;10.04;76.58;100366.78;6247715;28;20053;-74
2023/05/05 00:43:22;;;;;;;2.25;1.75;;;;;;;9.97;77.86;100362.84;6247246;28;20053;-74
2023/05/05 00:46:25;;;;;;;3.75;1.70;;;;;;;9.91;76.50;100366.63;6248451;28;20540;-74
2023/05/05 00:49:26;;;;;;;3.42;1.90;;;;;;;9.85;77.57;100361.72;6248726;28;20084;-74
2023/05/05 00:52:27;;;;;;;1.50;1.40;;;;;;;9.83;77.15;100367.00;6252477;28;20053;-74
2023/05/05 00:55:28;;;;;;;5.43;1.92;;;;;;;9.76;77.60;100363.06;6271919;28;20080;-74
2023/05/05 00:58:29;;;;;;;2.58;1.63;;;;;;;9.73;77.81;100363.22;6273261;28;20091;-71
2023/05/05 01:01:30;;;;;;;3.65;1.65;;;;;;;9.82;77.57;100362.75;6269055;28;20052;-71
2023/05/05 01:04:31;;;;;;;2.47;1.33;;;;;;;9.79;77.72;100357.69;6267264;28;20052;-71
2023/05/05 01:07:59;;;;;;;3.75;1.50;;;;;;;9.67;78.48;100359.16;6250689;28;20041;-72
2023/05/05 01:11:25;;;;;;;3.63;1.80;;;;;;;9.63;78.73;100357.63;6252126;28;20087;-71
2023/05/05 01:14:42;;;;;;;3.33;1.83;;;;;;;9.58;79.83;100353.59;6261508;28;20059;-71
2023/05/05 01:18:00;;;;;;;2.92;1.67;;;;;;;9.58;79.23;100357.03;6255462;28;20045;-71
2023/05/05 01:21:12;;;;;;;3.58;1.52;;;;;;;9.53;79.17;100348.63;6255305;28;20172;-71
2023/05/05 01:24:25;;;;;;;1.90;1.30;;;;;;;9.52;80.18;100343.50;6267176;28;20044;-71
2023/05/05 01:27:54;;;;;;;2.63;1.77;;;;;;;9.44;79.45;100355.16;6271745;28;20168;-71
2023/05/05 01:31:13;;;;;;;5.00;1.77;;;;;;;9.52;79.15;100341.72;6255693;28;20490;-72
2023/05/05 01:34:18;;;;;;;2.70;1.63;;;;;;;9.55;79.58;100354.59;6253658;28;20498;-71
2023/05/05 01:37:23;;;;;;;3.33;1.80;;;;;;;9.60;79.84;100346.56;6253320;28;20478;-71
2023/05/05 01:40:29;;;;;;;3.67;1.60;;;;;;;9.47;79.76;100341.13;6272001;28;20053;-71
2023/05/05 01:43:33;;;;;;;3.38;1.83;;;;;;;9.63;79.09;100347.22;6253714;28;20047;-71
2023/05/05 01:46:35;;;;;;;4.30;1.77;;;;;;;9.64;79.99;100348.06;6266036;28;20045;-71
2023/05/05 01:49:37;;;;;;;1.80;1.38;;;;;;;9.82;79.29;100352.31;6258223;28;20040;-71
2023/05/05 01:52:40;;;;;;;2.45;1.65;;;;;;;9.92;78.68;100347.44;6260813;28;20140;-71
2023/05/05 01:55:42;;;;;;;2.83;1.48;;;;;;;10.00;78.87;100349.63;6263268;28;20119;-72
2023/05/05 01:58:45;;;;;;;4.43;1.88;;;;;;;9.93;78.94;100351.75;6271012;28;20103;-72
2023/05/05 02:01:48;;;;;;;1.73;1.52;;;;;;;10.03;79.80;100350.31;6263957;28;20106;-72
2023/05/05 02:04:52;;;;;;;2.45;1.55;;;;;;;9.90;79.14;100346.66;6252624;28;20131;-71
2023/05/05 02:07:57;;;;;;;3.17;2.00;;;;;;;9.89;79.75;100337.19;6263910;28;20107;-74
2023/05/05 02:10:59;;;;;;;2.67;1.98;;;;;;;9.99;81.02;100343.59;6248146;28;21325;-74
2023/05/05 02:14:01;;;;;;;5.13;1.65;;;;;;;9.96;80.82;100338.53;6264189;28;20049;-74
2023/05/05 02:17:03;;;;;;;2.40;1.45;;;;;;;10.00;81.45;100334.81;6250921;28;20047;-74
2023/05/05 02:20:06;;;;;;;2.13;1.63;;;;;;;9.90;82.24;100341.47;6256962;28;20479;-74
2023/05/05 02:23:07;;;;;;;2.75;1.45;;;;;;;9.92;82.13;100346.59;6252560;28;20049;-74
2023/05/05 02:26:10;;;;;;;3.00;1.63;;;;;;;9.87;82.94;100350.28;6247298;28;20041;-74
2023/05/05 02:29:17;;;;;;;4.97;2.13;;;;;;;9.89;83.09;100342.41;6248872;28;20076;-74
2023/05/05 02:32:30;;;;;;;4.43;1.60;;;;;;;9.81;83.31;100348.00;6246433;28;20485;-74
2023/05/05 02:35:36;;;;;;;1.67;1.35;;;;;;;9.71;82.29;100343.38;6252761;28;20046;-74
2023/05/05 02:38:41;;;;;;;1.30;1.20;;;;;;;9.71;81.91;100345.97;6250461;28;20061;-74
2023/05/05 02:41:46;;;;;;;1.80;1.38;;;;;;;9.66;83.59;100346.22;6269181;28;20057;-74
2023/05/05 02:44:49;;;;;;;2.03;1.52;;;;;;;9.57;84.92;100337.09;6269907;28;20064;-74
2023/05/05 02:47:50;;;;;;;3.10;1.77;;;;;;;9.55;85.97;100338.94;6266245;28;20136;-74
2023/05/05 02:50:51;;;;;;;1.67;1.48;;;;;;;9.50;86.42;100343.56;6254681;28;20057;-74
2023/05/05 02:53:52;;;;;;;2.05;1.50;;;;;;;9.54;86.14;100349.47;6255681;28;20132;-74
2023/05/05 02:56:56;;;;;;;3.53;1.80;;;;;;;9.50;86.33;100359.22;6264428;28;20041;-74
2023/05/05 03:00:22;;;;;;;3.13;1.75;;;;;;;9.43;86.83;100371.72;6274354;28;20102;-74
2023/05/05 03:03:43;;;;;;;1.65;1.40;;;;;;;9.35;85.61;100368.66;6252233;28;20056;-74
2023/05/05 03:06:47;;;;;;;2.55;1.67;;;;;;;9.31;85.71;100369.72;6251034;28;20046;-74
2023/05/05 03:10:02;;;;;;;3.13;1.80;;;;;;;9.34;85.53;100355.69;6264326;28;20061;-74
2023/05/05 03:13:08;;;;;;;2.38;1.70;;;;;;;9.33;86.29;100356.59;6256916;28;20049;-74
2023/05/05 03:16:11;;;;;;;4.00;1.83;;;;;;;9.29;87.36;100353.34;6262811;28;20085;-74
2023/05/05 03:19:17;;;;;;;3.75;1.50;;;;;;;9.21;86.79;100358.94;6249201;28;20089;-74
2023/05/05 03:22:19;;;;;;;1.88;1.60;;;;;;;9.28;86.41;100359.44;6250396;28;20099;-74
2023/05/05 03:25:19;;;;;;;4.40;2.00;;;;;;;9.34;86.45;100361.75;6249042;28;20045;-74
2023/05/05 03:28:20;;;;;;;5.82;2.13;;;;;;;9.28;87.16;100355.06;6260622;28;20056;-74
2023/05/05 03:31:21;;;;;;;2.83;1.90;;;;;;;9.13;85.28;100350.66;6275540;28;20053;-74
2023/05/05 03:34:22;;;;;;;3.15;1.73;;;;;;;9.04;84.94;100346.75;6270915;28;20103;-74
2023/05/05 03:37:22;;;;;;;7.03;2.10;;;;;;;9.22;86.97;100350.19;6248758;28;20045;-74
2023/05/05 03:40:23;;;;;;;3.65;1.63;;;;;;;9.32;87.99;100347.13;6262712;28;20103;-74
2023/05/05 03:43:24;;;;;;;3.35;1.83;;;;;;;9.26;87.70;100359.53;6250835;28;20123;-74
2023/05/05 03:46:25;;;;;;;2.95;1.77;;;;;;;9.21;86.16;100364.13;6266525;28;20532;-74
2023/05/05 03:49:26;;;;;;;4.22;1.95;;;;;;;9.25;86.39;100359.63;6249834;28;20060;-74
2023/05/05 03:52:28;;;;;;;5.40;1.67;;;;;;;9.36;88.43;100374.69;6259883;28;20048;-72
2023/05/05 03:55:29;;;;;;;2.92;1.95;;;;;;;9.44;88.69;100364.72;6261577;28;20045;-72
2023/05/05 03:58:30;;;;;;;3.05;1.70;;;;;;;9.47;88.02;100380.19;6268605;28;20567;-72
2023/05/05 04:01:34;;;;;;;2.67;1.60;;;;;;;9.48;87.89;100379.28;6264870;28;20134;-72
2023/05/05 04:04:37;;;;;;;2.25;1.55;;;;;;;9.46;88.03;100376.75;6274028;28;20712;-72
2023/05/05 04:07:38;;;;;;;2.88;2.20;;;;;;;9.50;87.35;100381.81;6273442;28;20473;-72
2023/05/05 04:10:39;;;;;;;3.17;2.33;;;;;;;9.56;86.84;100389.31;6272431;28;20064;-72
2023/05/05 04:13:40;;;;;;;6.05;2.42;;;;;;;9.62;89.41;100383.78;6275200;28;20057;-71
2023/05/05 04:16:41;;;;;;;5.47;2.07;;;;;;;9.66;87.29;100390.53;6263146;28;20053;-72
2023/05/05 04:19:42;;;;;;;2.05;1.77;;;;;;;9.63;83.81;100394.09;6258168;28;20064;-71
2023/05/05 04:22:42;;;;;;;3.33;2.05;;;;;;;9.76;85.74;100393.47;6270121;28;20060;-72
2023/05/05 04:25:43;;;;;;;2.80;1.83;;;;;;;9.83;84.70;100406.09;6273752;28;20048;-72
2023/05/05 04:28:44;;;;;;;1.98;1.80;;;;;;;9.92;83.69;100403.94;6272595;28;20329;-71
2023/05/05 04:31:45;;;;;;;2.88;2.20;;;;;;;9.99;83.19;100403.53;6272373;28;20045;-72
2023/05/05 04:34:46;;;;;;;2.80;2.08;;;;;;;10.14;84.25;100411.47;6269417;28;20049;-72
2023/05/05 04:37:47;;;;;;;3.30;1.90;;;;;;;10.14;82.00;100408.88;6263557;28;20056;-72
2023/05/05 04:40:48;;;;;;;4.00;2.42;;;;;;;10.23;81.72;100404.00;6263049;28;20053;-71
2023/05/05 04:43:49;;;;;;;4.75;1.77;;;;;;;10.26;81.21;100409.03;6270864;28;20063;-71
2023/05/05 04:46:49;;;;;;;6.90;1.52;;;;;;;10.26;81.11;100413.44;6251580;28;20115;-71
2023/05/05 04:49:52;;;;;;;3.40;2.15;;;;;;;10.26;80.31;100409.03;6247406;28;20108;-72
2023/05/05 04:52:53;;;;;;;3.92;1.88;;;;;;;10.46;80.67;100408.00;6248866;28;20057;-72
2023/05/05 04:55:57;;;;;;;2.65;1.65;;;;;;;10.56;82.74;100410.91;6263257;28;20103;-71
2023/05/05 04:58:58;;;;;;;3.25;2.08;;;;;;;10.62;81.11;100415.81;6256368;28;20059;-71
2023/05/05 05:01:59;;;;;;;2.83;2.08;;;;;;;10.64;81.35;100418.34;6265748;28;20095;-71
2023/05/05 05:05:00;;;;;;;4.25;2.45;;;;;;;10.74;81.66;100426.50;6270535;28;20048;-71
2023/05/05 05:08:00;;;;;;;3.00;2.10;;;;;;;10.81;82.17;100426.09;6271829;28;20057;-72
2023/05/05 05:11:01;;;;;;;3.90;1.92;;;;;;;10.91;80.81;100431.59;6271484;28;20127;-71
2023/05/05 05:14:02;;;;;;;4.43;2.40;;;;;;;10.96;81.22;100428.75;6271674;28;20052;-71
2023/05/05 05:17:04;;;;;;;3.42;2.50;;;;;;;11.08;81.03;100438.50;6272525;28;20048;-72
2023/05/05 05:20:08;;;;;;;2.90;2.33;;;;;;;11.27;80.35;100430.44;6271451;28;20056;-72
2023/05/05 05:23:09;;;;;;;3.05;2.20;;;;;;;11.33;80.20;100426.66;6271614;28;20056;-71
2023/05/05 05:26:09;;;;;;;2.53;2.13;;;;;;;11.48;80.11;100429.19;6272273;28;20052;-71
2023/05/05 05:29:10;;;;;;;3.83;2.25;;;;;;;11.64;79.11;100433.53;6272496;28;20269;-72
2023/05/05 05:32:11;;;;;;;11.35;2.22;;;;;;;11.87;78.72;100439.97;6271030;28;20144;-72
2023/05/05 05:35:12;;;;;;;2.78;2.03;;;;;;;11.93;77.31;100439.66;6272211;28;20055;-72
2023/05/05 05:38:13;;;;;;;4.20;2.60;;;;;;;12.08;77.06;100430.03;6272003;28;20167;-72
2023/05/05 05:41:14;;;;;;;5.43;2.40;;;;;;;12.24;76.14;100440.38;6272248;28;20048;-72
2023/05/05 05:44:15;;;;;;;4.47;2.55;;;;;;;12.36;76.65;100438.78;6271836;28;20570;-72
2023/05/05 05:47:15;;;;;;;3.60;2.45;;;;;;;12.47;76.51;100439.78;6272108;28;20045;-73
2023/05/05 05:50:17;;;;;;;5.28;2.45;;;;;;;12.54;75.74;100448.13;6270858;28;20052;-72
2023/05/05 05:53:18;;;;;;;4.38;2.33;;;;;;;12.84;75.91;100454.94;6271910;28;20493;-72
2023/05/05 05:56:19;;;;;;;5.25;2.40;;;;;;;13.03;76.36;100451.97;6271761;28;20052;-71
2023/05/05 05:59:20;;;;;;;9.98;3.78;;;;;;;13.24;75.61;100452.34;6270436;28;20049;-72
2023/05/05 06:02:20;;;;;;;4.40;3.00;;;;;;;13.39;75.23;100458.41;6271549;28;20513;-72
2023/05/05 06:05:21;;;;;;;4.10;2.35;;;;;;;13.57;75.22;100453.69;6258019;28;20115;-72
2023/05/05 06:08:22;;;;;;;4.72;2.80;;;;;;;13.78;74.23;100459.31;6243864;28;20059;-72
2023/05/05 06:11:25;;;;;;;5.55;2.88;;;;;;;13.92;75.54;100459.19;6245378;28;20045;-72
2023/05/05 06:14:26;;;;;;;5.40;2.45;;;;;;;14.03;74.89;100466.31;6245595;28;20049;-71
2023/05/05 06:17:27;;;;;;;6.30;2.70;;;;;;;14.10;72.71;100463.19;6245386;28;20557;-72
2023/05/05 06:20:28;;;;;;;3.40;2.50;;;;;;;14.31;73.60;100460.00;6245171;28;20155;-72
2023/05/05 06:23:29;;;;;;;3.75;2.35;;;;;;;14.46;71.39;100458.09;6246637;28;20485;-72
2023/05/05 06:26:30;;;;;;;6.25;3.20;;;;;;;14.53;72.07;100454.06;6245281;28;20045;-72
2023/05/05 06:29:31;;;;;;;3.80;2.35;;;;;;;14.69;72.26;100456.47;6246575;28;20063;-72
2023/05/05 06:32:36;;;;;;;7.38;2.75;;;;;;;14.87;70.92;100454.31;6245859;28;20088;-71
2023/05/05 06:35:37;;;;;;;4.70;2.72;;;;;;;15.02;70.23;100447.91;6246608;28;20084;-75
2023/05/05 06:38:38;;;;;;;3.92;2.58;;;;;;;15.20;68.57;100458.03;6246225;28;20050;-75
2023/05/05 06:41:39;;;;;;;3.95;2.65;;;;;;;15.42;68.76;100459.91;6246463;28;20136;-75
2023/05/05 06:44:42;;;;;;;3.35;2.47;;;;;;;15.56;68.13;100458.88;6245985;28;20421;-75
2023/05/05 06:47:43;;;;;;;3.70;2.33;;;;;;;15.85;65.91;100451.41;6245982;28;20577;-75
2023/05/05 06:50:44;;;;;;;3.70;2.72;;;;;;;15.93;65.91;100453.47;6246357;28;20049;-76
2023/05/05 06:53:44;;;;;;;3.17;2.17;;;;;;;15.98;65.10;100460.06;6245097;28;20057;-75
2023/05/05 06:56:45;;;;;;;4.88;3.05;;;;;;;15.94;64.18;100455.13;6278260;28;20041;-75
2023/05/05 06:59:46;;;;;;;3.42;2.45;;;;;;;16.08;64.56;100454.91;6245548;28;20057;-75
2023/05/05 07:02:47;;;;;;;4.05;2.50;;;;;;;16.25;64.31;100454.44;6245040;28;20048;-75
2023/05/05 07:05:48;;;;;;;4.25;2.40;;;;;;;16.41;63.05;100451.44;6246041;28;20046;-75
2023/05/05 07:08:51;;;;;;;4.55;2.28;;;;;;;16.67;63.87;100453.78;6245030;28;20054;-75
2023/05/05 07:11:52;;;;;;;3.85;2.38;;;;;;;16.93;61.56;100454.34;6246130;28;20058;-75
2023/05/05 07:14:55;;;;;;;4.43;2.00;;;;;;;17.11;61.12;100454.63;6245693;28;20395;-75
2023/05/05 07:17:56;;;;;;;3.38;2.08;;;;;;;17.17;59.83;100454.13;6244782;28;20241;-76
2023/05/05 07:20:57;;;;;;;5.57;2.67;;;;;;;17.26;59.59;100448.09;6243668;28;20132;-76
2023/05/05 07:23:58;;;;;;;3.05;2.10;;;;;;;17.49;60.12;100453.25;6243559;28;20053;-75
2023/05/05 07:27:02;;;;;;;5.88;2.35;;;;;;;17.70;60.36;100454.06;6245083;28;20053;-75
2023/05/05 07:30:03;;;;;;;3.22;2.35;;;;;;;17.80;58.31;100451.50;6244664;28;20056;-75
2023/05/05 07:33:04;;;;;;;3.97;2.42;;;;;;;18.03;58.81;100456.66;6243750;28;20516;-75
2023/05/05 07:36:07;;;;;;;3.70;2.75;;;;;;;17.76;58.46;100450.09;6244789;28;20042;-76
2023/05/05 07:39:08;;;;;;;3.97;2.55;;;;;;;18.07;55.91;100452.78;6245752;28;20049;-76
2023/05/05 07:42:11;;;;;;;4.43;2.47;;;;;;;17.92;56.62;100447.84;6244740;28;20049;-75
2023/05/05 07:45:12;;;;;;;4.57;2.60;;;;;;;18.25;54.58;100450.34;6245454;28;20187;-76
2023/05/05 07:48:13;;;;;;;3.05;1.90;;;;;;;18.66;55.53;100449.34;6250416;28;20050;-75
2023/05/05 07:51:16;;;;;;;3.70;2.28;;;;;;;18.97;54.71;100440.53;6248830;28;20063;-76
2023/05/05 07:54:17;;;;;;;4.45;2.28;;;;;;;18.86;54.94;100444.97;6250219;28;20046;-75
2023/05/05 07:57:18;;;;;;;4.70;2.92;;;;;;;18.78;53.56;100439.50;6249095;28;20052;-75
2023/05/05 08:00:20;;;;;;;4.68;2.38;;;;;;;18.90;55.73;100437.56;6249913;28;20057;-76
2023/05/05 08:03:23;;;;;;;3.97;1.92;;;;;;;19.31;54.16;100441.78;6249920;28;20098;-76
2023/05/05 08:06:24;;;;;;;3.47;2.35;;;;;;;19.67;54.65;100441.16;6249606;28;20057;-78
2023/05/05 08:09:24;;;;;;;3.37;2.03;;;;;;;19.94;51.83;100448.34;6249608;28;20050;-75
2023/05/05 08:12:28;;;;;;;5.63;2.35;;;;;;;20.01;49.68;100444.13;6249527;28;20100;-75
2023/05/05 08:15:29;;;;;;;4.70;2.22;;;;;;;19.21;51.58;100443.59;6249505;28;20060;-75
2023/05/05 08:18:30;;;;;;;3.30;2.20;;;;;;;19.82;51.24;100442.38;6248370;28;20050;-76
2023/05/05 08:21:32;;;;;;;2.97;2.03;;;;;;;20.17;49.68;100443.50;6249487;28;20061;-76
2023/05/05 08:24:33;;;;;;;3.13;1.98;;;;;;;20.16;49.54;100441.84;6248250;28;20056;-75
2023/05/05 08:27:34;;;;;;;3.23;2.03;;;;;;;20.56;47.81;100437.19;6248204;28;20081;-71
2023/05/05 08:30:35;;;;;;;3.75;2.30;;;;;;;20.72;48.30;100446.16;6248887;28;20414;-71
2023/05/05 08:33:36;;;;;;;2.93;2.30;;;;;;;20.40;50.72;100445.78;6249093;28;20053;-71
2023/05/05 08:36:36;;;;;;;3.33;2.13;;;;;;;20.49;48.24;100442.25;6248875;28;20157;-71
2023/05/05 08:39:37;;;;;;;4.90;2.23;;;;;;;20.12;50.16;100440.47;6247584;28;20061;-71
2023/05/05 08:42:43;;;;;;;3.17;2.00;;;;;;;20.93;48.02;100443.22;6247235;28;20049;-73
2023/05/05 08:45:45;;;;;;;7.88;1.92;;;;;;;20.81;45.30;100433.81;6248669;28;20049;-71
2023/05/05 08:48:47;;;;;;;6.78;1.92;;;;;;;21.12;46.38;100436.91;6247784;28;20045;-72
2023/05/05 08:51:52;;;;;;;2.78;1.80;;;;;;;21.19;44.85;100438.97;6247465;28;20133;-72
2023/05/05 08:55:05;;;;;;;4.22;2.13;;;;;;;21.11;43.99;100429.13;6247628;28;20115;-72
2023/05/05 08:58:07;;;;;;;2.20;1.80;;;;;;;21.43;46.47;100439.19;6247241;28;20061;-72
2023/05/05 09:01:09;;;;;;;2.25;1.30;;;;;;;21.09;39.87;100431.94;6272625;28;20106;-73
2023/05/05 09:04:10;;;;;;;6.40;1.70;;;;;;;20.95;41.42;100435.13;6273088;28;20386;-73
2023/05/05 09:07:11;;;;;;;1.87;1.40;;;;;;;21.59;43.13;100435.00;6273440;28;20041;-72
2023/05/05 09:10:13;;;;;;;3.17;2.17;;;;;;;21.81;42.27;100438.97;6272851;28;20425;-73
2023/05/05 09:13:14;;;;;;;2.78;2.00;;;;;;;22.24;41.87;100430.06;6271600;28;20550;-73
2023/05/05 09:16:15;;;;;;;6.80;2.10;;;;;;;22.38;41.99;100427.78;6271594;28;20505;-76
2023/05/05 09:19:16;;;;;;;5.87;2.13;;;;;;;22.33;42.24;100433.56;6271668;28;20059;-77
2023/05/05 09:22:35;;;;;;;3.20;1.77;;;;;;;22.30;43.03;100431.25;6271659;28;20063;-77
2023/05/05 09:25:36;;;;;;;3.35;1.95;;;;;;;22.51;41.80;100431.63;6272697;28;20045;-72
2023/05/05 09:28:38;;;;;;;4.75;2.20;;;;;;;22.08;42.11;100432.63;6271300;28;20107;-73
2023/05/05 09:31:38;;;;;;;3.23;2.00;;;;;;;22.35;42.52;100431.59;6271239;28;20057;-73
2023/05/05 09:34:42;;;;;;;4.80;2.13;;;;;;;22.07;42.15;100429.13;6272598;28;20278;-76
2023/05/05 09:37:44;;;;;;;3.65;2.05;;;;;;;21.49;41.69;100432.44;6272376;28;20052;-76
2023/05/05 09:40:52;;;;;;;4.13;2.20;;;;;;;22.23;40.48;100431.03;6271006;28;20052;-76
2023/05/05 09:43:53;;;;;;;1.73;1.45;;;;;;;22.53;40.01;100426.16;6270996;28;20579;-76
2023/05/05 09:46:54;;;;;;;8.70;2.00;;;;;;;22.76;41.06;100425.56;6271404;28;20049;-77
2023/05/05 09:49:58;;;;;;;2.47;1.47;;;;;;;22.99;39.78;100418.59;6271986;28;20053;-77
2023/05/05 09:53:01;;;;;;;6.50;1.73;;;;;;;22.37;41.00;100416.31;6272179;28;20084;-76
2023/05/05 09:56:01;;;;;;;2.05;1.38;;;;;;;22.51;41.49;100407.72;6270534;28;20045;-76
2023/05/05 09:59:09;;;;;;;2.43;1.83;;;;;;;23.01;41.09;100410.44;6271259;28;20566;-76
2023/05/05 10:02:12;;;;;;;2.30;1.90;;;;;;;22.92;39.87;100420.25;6271996;28;20053;-76
2023/05/05 10:05:15;;;;;;;;;;;;;;;22.85;38.61;100419.22;6272427;28;20094;-76
2023/05/05 10:08:21;;;;;;;3.40;1.70;;;;;;;22.42;40.37;100410.50;6271329;28;20381;-76
2023/05/05 10:11:22;;;;;;;3.13;2.20;;;;;;;23.03;39.93;100403.97;6270538;28;20055;-76
2023/05/05 10:14:24;;;;;;;2.20;1.67;;;;;;;22.66;40.74;100415.06;6271803;28;20049;-76
2023/05/05 10:17:31;;;;;;;2.33;1.52;;;;;;;22.21;41.18;100421.53;6271784;28;20045;-76
2023/05/05 10:20:36;;;;;;;2.22;1.65;;;;;;;22.14;41.40;100405.41;6272208;28;20155;-76
2023/05/05 10:23:48;;;;;;;1.58;1.40;;;;;;;22.23;40.37;100395.63;6271157;28;20068;-76
2023/05/05 10:26:50;;;;;;;2.47;1.50;;;;;;;23.34;39.67;100392.66;6272263;28;20450;-72
2023/05/05 10:30:01;;;;;;;2.80;1.65;;;;;;;23.82;38.56;100390.06;6270340;28;20478;-72
2023/05/05 10:33:18;;;;;;;2.67;1.40;;;;;;;23.13;39.90;100386.00;6270600;28;20136;-73
2023/05/05 10:36:19;;;;;;;2.53;1.73;;;;;;;23.01;39.48;100381.16;6271086;28;20045;-76
2023/05/05 10:39:21;;;;;;;2.88;1.50;;;;;;;23.63;39.52;100383.28;6271098;28;20045;-76
2023/05/05 10:42:26;;;;;;;3.65;1.77;;;;;;;23.12;39.27;100379.03;6270939;28;20049;-72
2023/05/05 10:45:27;;;;;;;1.88;1.55;;;;;;;23.91;39.85;100381.88;6269922;28;20053;-72
2023/05/05 10:48:43;;;;;;;2.40;1.65;;;;;;;24.36;39.32;100370.66;6269672;28;20429;-76
2023/05/05 10:52:21;;;;;;;3.58;1.58;;;;;;;25.12;38.63;100363.59;6269798;28;20056;-76
2023/05/05 10:55:53;;;;;;;1.45;1.30;;;;;;;25.38;36.85;100360.56;6270682;28;20053;-76
2023/05/05 10:58:53;;;;;;;6.25;1.40;;;;;;;25.73;38.00;100367.00;6269660;28;20052;-76
2023/05/05 11:01:54;;;;;;;2.70;1.60;;;;;;;24.85;38.32;100357.88;6269827;28;20072;-76
2023/05/05 11:05:08;;;;;;;4.22;1.70;;;;;;;23.65;37.35;100357.31;6269456;28;20575;-76
2023/05/05 11:08:28;;;;;;;2.40;1.80;;;;;;;24.83;40.23;100351.03;6270893;28;20096;-76
2023/05/05 11:12:08;;;;;;;5.32;1.73;;;;;;;24.40;37.17;100347.97;6269324;28;20516;-76
2023/05/05 11:15:27;;;;;;;2.58;1.60;;;;;;;24.59;36.28;100341.41;6218577;28;20054;-76
2023/05/05 11:18:29;;;;;;;2.10;1.55;;;;;;;24.68;36.24;100337.63;6205189;28;20045;-76
2023/05/05 11:21:59;;;;;;;3.20;2.00;;;;;;;23.02;38.31;100340.28;6272868;28;20382;-76
2023/05/05 11:25:00;;;;;;;1.98;1.45;;;;;;;23.05;37.94;100338.13;6275307;28;20479;-76
2023/05/05 11:28:04;;;;;;;2.33;1.47;;;;;;;23.97;36.98;100326.22;6275302;28;20051;-76
2023/05/05 11:31:05;;;;;;;2.15;1.60;;;;;;;24.64;36.50;100334.50;6275405;28;20269;-76
2023/05/05 11:34:26;;;;;;;2.85;1.52;;;;;;;25.12;35.52;100337.75;6273867;28;20056;-76
2023/05/05 11:37:30;;;;;;;2.10;1.23;;;;;;;24.56;37.66;100326.56;6275174;28;20052;-76
2023/05/05 11:40:34;;;;;;;3.85;1.60;;;;;;;24.79;37.36;100323.03;6273956;28;20134;-76
2023/05/05 11:43:35;;;;;;;1.40;1.30;;;;;;;24.78;39.13;100324.88;6274691;28;20053;-76
2023/05/05 11:46:37;;;;;;;3.95;1.55;;;;;;;25.26;36.29;100317.44;6274870;28;20051;-76
2023/05/05 11:49:38;;;;;;;2.00;1.45;;;;;;;25.62;35.51;100318.56;6273629;28;20072;-76
2023/05/05 11:52:39;;;;;;;1.30;1.20;;;;;;;24.76;36.06;100316.22;6273540;28;20167;-76
2023/05/05 11:55:42;;;;;;;1.33;1.20;;;;;;;24.11;36.27;100310.34;6273331;28;20132;-76
2023/05/05 11:58:44;;;;;;;2.30;1.67;;;;;;;23.50;37.50;100306.59;6273559;28;20057;-76
2023/05/05 12:01:45;;;;;;;;;;;;;;;23.45;37.82;100306.25;6274908;28;20131;-76
2023/05/05 12:04:46;;;;;;;2.55;1.38;;;;;;;24.45;35.29;100300.28;6273273;28;19921;-76
2023/05/05 12:07:54;;;;;;;;;;;;;;;24.81;36.16;100302.34;6274783;28;20102;-76
2023/05/05 12:11:02;;;;;;;2.90;1.27;;;;;;;24.82;33.96;100299.50;6274432;28;19928;-76
2023/05/05 12:14:10;;;;;;;2.50;1.38;;;;;;;24.58;36.56;100302.38;6274095;28;20135;-76
2023/05/05 12:17:11;;;;;;;1.92;1.35;;;;;;;24.99;36.42;100289.50;6274271;28;20511;-76
2023/05/05 12:20:12;;;;;;;1.53;1.07;;;;;;;24.04;35.43;100295.22;6274088;28;20052;-76
2023/05/05 12:23:13;;;;;;;2.38;1.30;;;;;;;24.33;35.55;100286.53;6274116;28;20276;-76
2023/05/05 12:26:27;;;;;;;1.40;1.30;;;;;;;25.01;33.53;100290.16;6274046;28;20049;-76
2023/05/05 12:29:28;;;;;;;1.52;1.25;;;;;;;25.04;35.04;100296.94;6273795;28;20278;-76
2023/05/05 12:32:29;;;;;;;1.57;1.47;;;;;;;24.74;35.35;100289.72;6271993;28;20116;-76
2023/05/05 12:35:31;;;;;;;3.92;1.52;;;;;;;22.85;37.90;100281.72;6273831;28;20305;-73
2023/05/05 12:38:32;;;;;;;2.83;1.38;;;;;;;22.87;38.79;100281.56;6273671;28;20623;-72
2023/05/05 12:41:33;;;;;;;2.43;1.57;;;;;;;22.44;39.87;100278.25;6272368;28;20049;-73
2023/05/05 12:44:35;;;;;;;1.70;1.40;;;;;;;23.23;38.46;100283.88;6273400;28;20351;-72
2023/05/05 12:47:36;;;;;;;4.75;1.20;;;;;;;22.90;39.43;100275.91;6272194;28;20132;-73
2023/05/05 12:50:39;;;;;;;1.63;1.13;;;;;;;23.49;38.56;100272.97;6273473;28;20064;-73
2023/05/05 12:53:40;;;;;;;2.78;1.50;;;;;;;23.11;37.27;100267.44;6273252;28;20053;-72
2023/05/05 12:56:45;;;;;;;2.00;1.40;;;;;;;22.67;38.02;100268.63;6273340;28;20045;-73
2023/05/05 12:59:48;;;;;;;2.35;1.30;;;;;;;22.87;39.59;100263.75;6273059;28;20519;-72
2023/05/05 13:02:49;;;;;;;2.40;1.33;;;;;;;;;;6271921;28;20053;-72
2023/05/05 13:05:50;;;;;;;1.23;1.13;;;;;;;23.31;38.60;100258.06;6271909;28;20063;-73
2023/05/05 13:08:53;;;;;;;2.47;1.63;;;;;;;24.23;37.40;100248.59;6271911;28;20142;-73
2023/05/05 13:11:54;;;;;;;1.65;1.30;;;;;;;24.91;38.25;100250.41;6272994;28;20060;-73
2023/05/05 13:14:54;;;;;;;1.73;1.33;;;;;;;25.07;37.17;100244.03;6271443;28;20080;-73
2023/05/05 13:18:02;;;;;;;1.60;1.20;;;;;;;25.03;34.82;100249.94;6272665;28;20380;-73
2023/05/05 13:21:03;;;;;;;3.05;1.45;;;;;;;24.71;34.86;100243.94;6272738;28;20811;-72
2023/05/05 13:24:04;;;;;;;2.53;1.63;;;;;;;24.55;34.98;100238.72;6272587;28;20135;-72
2023/05/05 13:27:05;;;;;;;;;;;;;;;24.68;37.18;100236.25;6272927;28;20270;-73
2023/05/05 13:30:08;;;;;;;4.00;1.10;;;;;;;24.81;35.97;100239.16;6272557;28;19921;-72
2023/05/05 13:33:09;;;;;;;2.03;1.13;;;;;;;24.71;35.70;100234.06;6272153;28;20139;-72
2023/05/05 13:36:09;;;;;;;1.93;1.13;;;;;;;24.13;36.76;100222.19;6272415;28;20489;-73
2023/05/05 13:39:11;;;;;;;1.83;1.13;;;;;;;23.25;37.97;100212.66;6270964;28;20281;-73
2023/05/05 13:42:12;;;;;;;2.25;1.38;;;;;;;23.16;37.85;100219.00;6271559;28;20503;-72
2023/05/05 13:45:13;;;;;;;3.55;1.80;;;;;;;23.46;38.17;100214.72;6271868;28;20057;-73
2023/05/05 13:48:16;;;;;;;2.30;1.20;;;;;;;23.47;38.11;100216.38;6270761;28;20072;-73
2023/05/05 13:51:17;;;;;;;2.40;1.25;;;;;;;22.91;38.27;100209.22;6270677;28;20053;-72
2023/05/05 13:54:17;;;;;;;2.73;1.63;;;;;;;22.84;38.77;100212.75;6271764;28;20539;-72
2023/05/05 13:57:20;;;;;;;1.38;1.20;;;;;;;22.71;44.15;100199.94;6270531;28;20402;-72
2023/05/05 14:00:21;;;;;;;2.10;1.50;;;;;;;22.33;41.12;100200.50;6271580;28;20056;-72
2023/05/05 14:03:24;;;;;;;1.98;1.40;;;;;;;21.92;40.85;100199.59;6270550;28;20324;-72
2023/05/05 14:06:26;;;;;;;2.15;1.13;;;;;;;21.99;44.39;100192.66;6270282;28;20045;-72
2023/05/05 14:09:27;;;;;;;1.25;1.15;;;;;;;21.99;41.93;100192.66;6271895;28;20102;-72
2023/05/05 14:12:28;;;;;;;2.03;1.50;;;;;;;22.20;41.69;100188.69;6270267;28;20049;-72
2023/05/05 14:15:29;;;;;;;1.37;1.20;;;;;;;22.54;42.35;100185.84;6270040;28;20481;-72
2023/05/05 14:18:30;;;;;;;1.67;1.25;;;;;;;22.47;40.57;100184.88;6271324;28;20053;-72